Aérodrome :
LOGIN :

S'inscrire | Disclaimer

   EN    FR    IT 

 










Légende :    VFR   VFR Marginal   IFR   IFR Intensif   IFR Très Intensif
Visi : 
Plafond : 
>= 8 km
>= 3000ft
5 à 8 km
1000 à 3000 ft
1500m à 5 km
500 à 1000 ft
800 à 1500m
200 à 500 ft
< 800m
< 200 ft
Symboles :   Orages  Brouillard  Fortes neiges  Fortes précipitations  Vent > 20 kt
SIGMETs :   Divers  Orages  Givrage  Turbulence  Onde Orograph.  Cendres Volcan.







- Altitude de l'aérodrome : 268 ft
- Code IATA : BFS
- Voir les cartes d'approche


EGAA - Belfast Aldergrove

DERNIER METAR :
  • 201420Z VRB03KT 9999 FEW025 11/07 Q1002

METARs EXPIRÉS :
  • 201350Z VRB03KT 9999 FEW022 11/07 Q1003
  • 201320Z 18004KT 130V220 9999 FEW022 11/07 Q1004
  • 201250Z 18005KT 140V200 9999 FEW018 11/07 Q1004
  • 201220Z 17005KT 130V210 9999 FEW015 11/08 Q1004
  • 201150Z 19005KT 9999 FEW015 11/08 Q1005

TAF AMD TAF EGAA
Valide du 20 à 14h jusqu'au 21 à 12h UTC


201407Z 2014/2112 VRB05KT 9999 FEW030
TEMPO 2016/2023 7000 RA BKN014
BECMG 2020/2023 27010KT
PROB30
TEMPO 2021/2023 BKN007
PROB40
TEMPO 2106/2112 6000 SHRA BKN014
BECMG 2108/2111 28017G29KT
Pas de NOTAMs connus pour ce terrain.
2 SIGMETs publiés pour la FIR Scottish (EGPX) :
 
Onde orographique forte
EGPX SIGMET 10 VALID 201300/201700 EGRR
EGPX SCOTTISH FIR SEV MTW FCST WI N5651 W00103 - N5629 W00339 - N5826 W00352 - N5845 W00106 - N5651 W00103 FL030/250 STNR WKN=
Turbulence forte
EGPX SIGMET 09 VALID 201300/201700 EGRR
EGPX SCOTTISH FIR SEV TURB FCST WI N5658 W00338 - N5733 W00516 - N5931 W00452 - N6058 W00115 - N6100 E00000 - N6000 E00000 - N5658 W00338 SFC/FL060 MOV NE 15KT WKN=



MET'MAP, la Météo Aéronautique d'un coup d'oeil ! - Copyright ORBIFLY Décembre 2007 - Disclaimer

ORBIFLY MET'MAP TEAM :

Programmation & Développement : Alexandra Zaïnal
Conception & Développement : Baudouin d'Aumeries
Co-Programmation & Développement : Marc-Olivier Méhu
Soutien technique & logistique : Manuel Goepfert

Contact : metmap@orbifly.com




SOURCES & CREDITS :

   NOAA